createdAt,value
2023-05-13T00:00:40.911Z,25.00
2023-05-13T00:01:40.996Z,1.83
2023-05-13T00:02:41.097Z,0.00
2023-05-13T00:03:41.194Z,0.00
2023-05-13T00:04:41.117Z,0.00
2023-05-13T00:05:41.183Z,0.00
2023-05-13T00:06:41.270Z,13.69
2023-05-13T00:07:41.191Z,25.00
2023-05-13T00:08:41.224Z,26.17
2023-05-13T00:09:41.318Z,25.98
2023-05-13T00:10:41.368Z,24.03
2023-05-13T00:11:41.432Z,26.49
2023-05-13T00:12:41.481Z,25.00
2023-05-13T00:13:41.501Z,25.92
2023-05-13T00:14:41.584Z,25.85
2023-05-13T00:15:41.619Z,27.07
2023-05-13T00:16:41.789Z,26.89
2023-05-13T00:17:41.748Z,25.00
2023-05-13T00:18:41.847Z,28.65
2023-05-13T00:19:41.762Z,26.03
2023-05-13T00:20:41.773Z,29.01
2023-05-13T00:21:41.799Z,25.93
2023-05-13T00:22:41.818Z,27.17
2023-05-13T00:23:41.816Z,26.77
2023-05-13T00:24:41.825Z,27.06
2023-05-13T00:25:41.845Z,25.54
2023-05-13T00:26:41.848Z,25.00
2023-05-13T00:27:41.904Z,27.00
2023-05-13T00:28:41.887Z,26.14
2023-05-13T00:29:41.891Z,25.95
2023-05-13T00:30:41.896Z,27.02
2023-05-13T00:31:41.986Z,27.57
2023-05-13T00:32:41.942Z,25.32
2023-05-13T00:33:41.914Z,26.60
2023-05-13T00:34:41.961Z,27.20
2023-05-13T00:35:42.002Z,27.07
2023-05-13T00:36:42.034Z,27.70
2023-05-13T00:37:42.066Z,26.90
2023-05-13T00:38:42.078Z,29.85
2023-05-13T00:39:42.098Z,27.72
2023-05-13T00:40:42.113Z,28.83
2023-05-13T00:41:42.128Z,27.36
2023-05-13T00:42:42.146Z,25.00
2023-05-13T00:43:42.188Z,29.37
2023-05-13T00:44:42.214Z,26.96
2023-05-13T00:45:42.201Z,26.42
2023-05-13T00:46:42.209Z,29.38
2023-05-13T00:47:42.241Z,25.46
2023-05-13T00:48:42.248Z,25.00
2023-05-13T00:49:42.260Z,29.25
2023-05-13T00:50:42.280Z,29.47
2023-05-13T00:51:42.298Z,28.54
2023-05-13T00:52:42.318Z,28.04
2023-05-13T00:53:42.336Z,25.53
2023-05-13T00:54:42.351Z,26.49
2023-05-13T00:55:42.363Z,26.67
2023-05-13T00:56:42.397Z,27.51
2023-05-13T00:57:42.425Z,28.94
2023-05-13T00:58:42.457Z,29.39
2023-05-13T00:59:42.511Z,28.08
2023-05-13T01:00:42.507Z,28.06
2023-05-13T01:01:42.642Z,26.49
2023-05-13T01:02:42.660Z,25.00
2023-05-13T01:03:42.671Z,29.71
2023-05-13T01:04:42.659Z,30.06
2023-05-13T01:05:42.694Z,25.19
2023-05-13T01:06:42.715Z,27.16
2023-05-13T01:07:42.736Z,28.29
2023-05-13T01:08:42.787Z,30.67
2023-05-13T01:09:42.819Z,25.00
2023-05-13T01:10:42.846Z,30.78
2023-05-13T01:11:42.848Z,30.04
2023-05-13T01:12:42.887Z,28.97
2023-05-13T01:13:42.908Z,28.49
2023-05-13T01:14:42.907Z,28.98
2023-05-13T01:15:43.078Z,28.83
2023-05-13T01:16:42.986Z,28.54
2023-05-13T01:17:43.008Z,25.58
2023-05-13T01:18:43.024Z,27.65
2023-05-13T01:19:43.043Z,29.47
2023-05-13T01:20:43.060Z,25.80
2023-05-13T01:21:43.095Z,27.33
2023-05-13T01:22:43.101Z,26.50
2023-05-13T01:23:43.133Z,28.49
2023-05-13T01:24:43.202Z,30.59
2023-05-13T01:25:43.155Z,28.00
2023-05-13T01:26:43.205Z,29.87
2023-05-13T01:27:43.211Z,30.92
2023-05-13T01:28:43.262Z,26.72
2023-05-13T01:29:43.251Z,25.32
2023-05-13T01:30:43.296Z,29.99
2023-05-13T01:31:43.464Z,30.46
2023-05-13T01:32:43.403Z,27.64
2023-05-13T01:33:43.446Z,29.06
2023-05-13T01:34:43.497Z,29.75
2023-05-13T01:35:43.530Z,27.98
2023-05-13T01:36:43.558Z,27.82
2023-05-13T01:37:43.595Z,28.40
2023-05-13T01:38:43.618Z,28.21
2023-05-13T01:39:43.632Z,25.65
2023-05-13T01:40:43.646Z,28.28
2023-05-13T01:41:43.692Z,27.93
2023-05-13T01:42:43.702Z,29.41
2023-05-13T01:43:43.706Z,29.20
2023-05-13T01:44:43.722Z,29.87
2023-05-13T01:45:43.726Z,30.27
2023-05-13T01:46:43.729Z,29.47
2023-05-13T01:47:43.796Z,28.93
2023-05-13T01:48:43.747Z,28.56
2023-05-13T01:49:43.765Z,29.53
2023-05-13T01:50:43.775Z,29.74
2023-05-13T01:51:43.779Z,30.61
2023-05-13T01:52:43.807Z,29.99
2023-05-13T01:53:43.797Z,27.48
2023-05-13T01:54:43.816Z,31.77
2023-05-13T01:55:43.832Z,28.30
2023-05-13T01:56:43.836Z,33.28
2023-05-13T01:57:43.874Z,31.14
2023-05-13T01:58:43.914Z,29.39
2023-05-13T01:59:43.897Z,28.64
2023-05-13T02:00:43.901Z,30.54
2023-05-13T02:01:43.924Z,26.34
2023-05-13T02:02:43.977Z,25.00
2023-05-13T02:03:44.115Z,26.27
2023-05-13T02:04:43.928Z,27.32
2023-05-13T02:05:43.945Z,28.47
2023-05-13T02:06:43.947Z,29.78
2023-05-13T02:07:43.964Z,28.28
2023-05-13T02:08:43.962Z,27.92
2023-05-13T02:09:43.984Z,27.95
2023-05-13T02:10:43.978Z,28.69
2023-05-13T02:11:43.989Z,29.38
2023-05-13T02:12:43.999Z,29.54
2023-05-13T02:13:44.003Z,28.45
2023-05-13T02:14:44.033Z,29.84
2023-05-13T02:15:44.055Z,29.10
2023-05-13T02:16:44.054Z,28.11
2023-05-13T02:17:44.099Z,29.07
2023-05-13T02:18:44.114Z,27.89
2023-05-13T02:19:44.110Z,28.50
2023-05-13T02:20:44.102Z,28.81
2023-05-13T02:21:44.108Z,30.03
2023-05-13T02:22:44.177Z,30.72
2023-05-13T02:23:44.170Z,29.89
2023-05-13T02:24:44.148Z,29.69
2023-05-13T02:25:44.170Z,30.96
2023-05-13T02:26:44.177Z,29.57
2023-05-13T02:27:44.191Z,26.68
2023-05-13T02:28:44.209Z,28.09
2023-05-13T02:29:44.210Z,28.58
2023-05-13T02:30:44.228Z,29.36
2023-05-13T02:31:44.318Z,26.53
2023-05-13T02:32:44.355Z,27.34
2023-05-13T02:33:44.261Z,27.30
2023-05-13T02:34:44.299Z,29.66
2023-05-13T02:35:44.328Z,29.58
2023-05-13T02:36:44.328Z,28.16
2023-05-13T02:37:44.336Z,27.32
2023-05-13T02:38:44.345Z,28.74
2023-05-13T02:39:44.362Z,25.63
2023-05-13T02:40:44.379Z,26.16
2023-05-13T02:41:44.436Z,29.21
2023-05-13T02:42:44.399Z,28.64
2023-05-13T02:43:44.411Z,30.52
2023-05-13T02:44:44.437Z,28.25
2023-05-13T02:45:44.514Z,28.19
2023-05-13T02:46:44.475Z,28.65
2023-05-13T02:47:44.563Z,27.93
2023-05-13T02:48:44.492Z,28.26
2023-05-13T02:49:44.499Z,32.16
2023-05-13T02:50:44.522Z,30.96
2023-05-13T02:51:44.553Z,29.55
2023-05-13T02:52:44.554Z,28.47
2023-05-13T02:53:44.570Z,30.29
2023-05-13T02:54:44.621Z,32.89
2023-05-13T02:55:44.614Z,30.10
2023-05-13T02:56:44.620Z,27.52
2023-05-13T02:57:44.649Z,28.28
2023-05-13T02:58:44.668Z,31.18
2023-05-13T02:59:44.689Z,29.65
2023-05-13T03:00:44.695Z,31.27
2023-05-13T03:01:44.781Z,27.73
2023-05-13T03:02:44.791Z,31.16
2023-05-13T03:03:44.875Z,30.41
2023-05-13T03:04:44.762Z,30.25
2023-05-13T03:05:44.781Z,31.60
2023-05-13T03:06:44.789Z,28.84
2023-05-13T03:07:44.827Z,30.41
2023-05-13T03:08:44.835Z,29.81
2023-05-13T03:09:44.856Z,28.74
2023-05-13T03:10:44.865Z,29.00
2023-05-13T03:11:44.874Z,33.20
2023-05-13T03:12:44.888Z,29.97
2023-05-13T03:13:44.911Z,29.49
2023-05-13T03:14:44.924Z,27.68
2023-05-13T03:15:44.990Z,29.31
2023-05-13T03:16:44.956Z,31.03
2023-05-13T03:17:45.012Z,29.99
2023-05-13T03:18:45.064Z,28.97
2023-05-13T03:19:45.009Z,29.90
2023-05-13T03:20:45.026Z,27.68
2023-05-13T03:21:45.034Z,29.60
2023-05-13T03:22:45.054Z,29.43
2023-05-13T03:23:45.085Z,27.94
2023-05-13T03:24:45.075Z,29.14
2023-05-13T03:25:45.110Z,26.88
2023-05-13T03:26:45.111Z,29.57
2023-05-13T03:27:45.136Z,30.66
2023-05-13T03:28:45.143Z,31.10
2023-05-13T03:29:45.166Z,30.29
2023-05-13T03:30:45.169Z,29.27
2023-05-13T03:31:45.282Z,28.58
2023-05-13T03:32:45.229Z,30.04
2023-05-13T03:33:45.212Z,28.32
2023-05-13T03:34:45.224Z,29.52
2023-05-13T03:35:45.239Z,29.68
2023-05-13T03:36:45.257Z,29.61
2023-05-13T03:37:45.279Z,29.03
2023-05-13T03:38:45.295Z,25.87
2023-05-13T03:39:45.472Z,27.30
2023-05-13T03:40:45.346Z,30.86
2023-05-13T03:41:45.349Z,31.08
2023-05-13T03:42:45.366Z,29.42
2023-05-13T03:43:45.392Z,27.51
2023-05-13T03:44:45.407Z,31.19
2023-05-13T03:45:45.427Z,29.61
2023-05-13T03:46:45.513Z,29.62
2023-05-13T03:47:45.562Z,30.21
2023-05-13T03:48:45.473Z,28.77
2023-05-13T03:49:45.487Z,29.01
2023-05-13T03:50:45.508Z,30.34
2023-05-13T03:51:45.531Z,30.48
2023-05-13T03:52:46.974Z,27.13
2023-05-13T03:53:45.554Z,31.40
2023-05-13T03:54:45.557Z,32.85
2023-05-13T03:55:45.585Z,31.61
2023-05-13T03:56:45.565Z,30.76
2023-05-13T03:57:45.587Z,31.27
2023-05-13T03:58:45.627Z,33.46
2023-05-13T03:59:45.599Z,31.18
2023-05-13T04:00:45.587Z,30.46
2023-05-13T04:01:45.603Z,29.94
2023-05-13T04:02:45.760Z,30.97
2023-05-13T04:03:45.613Z,28.49
2023-05-13T04:04:45.708Z,29.01
2023-05-13T04:05:45.618Z,29.84
2023-05-13T04:06:45.624Z,29.85
2023-05-13T04:07:45.628Z,30.85
2023-05-13T04:08:45.688Z,29.22
2023-05-13T04:09:45.646Z,29.62
2023-05-13T04:10:45.669Z,31.61
2023-05-13T04:11:45.842Z,28.85
2023-05-13T04:12:45.705Z,30.00
2023-05-13T04:13:45.685Z,27.10
2023-05-13T04:14:45.695Z,30.10
2023-05-13T04:15:45.714Z,28.67
2023-05-13T04:16:45.764Z,27.65
2023-05-13T04:17:45.775Z,31.79
2023-05-13T04:18:45.745Z,29.29
2023-05-13T04:19:45.750Z,28.85
2023-05-13T04:20:45.762Z,32.18
2023-05-13T04:21:45.764Z,29.31
2023-05-13T04:22:45.794Z,30.10
2023-05-13T04:23:45.787Z,30.99
2023-05-13T04:24:45.805Z,27.85
2023-05-13T04:25:45.814Z,30.81
2023-05-13T04:26:45.827Z,28.82
2023-05-13T04:27:45.859Z,29.81
2023-05-13T04:28:45.856Z,31.81
2023-05-13T04:29:45.864Z,30.27
2023-05-13T04:30:45.870Z,28.86
2023-05-13T04:31:45.903Z,27.26
2023-05-13T04:32:46.329Z,30.59
2023-05-13T04:33:45.889Z,28.98
2023-05-13T04:34:45.891Z,29.51
2023-05-13T04:35:45.909Z,28.54
2023-05-13T04:36:45.913Z,27.34
2023-05-13T04:37:45.922Z,30.07
2023-05-13T04:38:45.927Z,27.52
2023-05-13T04:39:45.934Z,28.26
2023-05-13T04:40:45.951Z,30.02
2023-05-13T04:41:45.970Z,30.46
2023-05-13T04:42:45.968Z,28.64
2023-05-13T04:43:46.017Z,30.60
2023-05-13T04:44:45.979Z,30.57
2023-05-13T04:45:45.988Z,32.38
2023-05-13T04:46:46.085Z,29.22
2023-05-13T04:47:46.152Z,28.99
2023-05-13T04:48:46.016Z,28.53
2023-05-13T04:49:46.034Z,28.05
2023-05-13T04:50:46.060Z,29.87
2023-05-13T04:51:46.088Z,29.76
2023-05-13T04:52:46.106Z,31.88
2023-05-13T04:53:46.132Z,31.20
2023-05-13T04:54:46.168Z,28.10
2023-05-13T04:55:46.187Z,31.04
2023-05-13T04:56:46.227Z,28.18
2023-05-13T04:57:46.240Z,27.15
2023-05-13T04:58:46.268Z,30.52
2023-05-13T04:59:46.310Z,29.59
2023-05-13T05:00:46.306Z,30.14
2023-05-13T05:01:46.347Z,27.66
2023-05-13T05:02:46.420Z,32.46
2023-05-13T05:03:46.395Z,30.33
2023-05-13T05:04:46.399Z,30.11
2023-05-13T05:05:46.413Z,27.37
2023-05-13T05:06:46.449Z,29.60
2023-05-13T05:07:46.460Z,26.47
2023-05-13T05:08:46.499Z,29.41
2023-05-13T05:09:46.514Z,32.53
2023-05-13T05:10:46.544Z,32.52
2023-05-13T05:11:46.562Z,31.46
2023-05-13T05:12:46.583Z,32.04
2023-05-13T05:13:46.617Z,26.85
2023-05-13T05:14:46.641Z,30.93
2023-05-13T05:15:46.710Z,29.52
2023-05-13T05:16:46.701Z,29.28
2023-05-13T05:17:46.846Z,29.93
2023-05-13T05:18:46.890Z,28.53
2023-05-13T05:19:46.795Z,30.76
2023-05-13T05:20:46.809Z,26.45
2023-05-13T05:21:46.856Z,29.33
2023-05-13T05:22:46.876Z,26.78
2023-05-13T05:23:46.928Z,32.67
2023-05-13T05:24:46.948Z,29.12
2023-05-13T05:25:47.640Z,30.71
2023-05-13T05:26:47.072Z,32.47
2023-05-13T05:27:47.097Z,30.61
2023-05-13T05:28:47.204Z,31.75
2023-05-13T05:29:47.311Z,28.14
2023-05-13T05:30:47.190Z,30.79
2023-05-13T05:31:47.311Z,29.55
2023-05-13T05:32:47.357Z,29.12
2023-05-13T05:33:47.283Z,31.12
2023-05-13T05:34:47.307Z,28.00
2023-05-13T05:35:47.332Z,30.38
2023-05-13T05:36:47.367Z,27.58
2023-05-13T05:37:47.392Z,28.36
2023-05-13T05:38:47.427Z,30.20
2023-05-13T05:39:47.450Z,29.50
2023-05-13T05:40:47.475Z,28.39
2023-05-13T05:41:47.508Z,30.75
2023-05-13T05:42:47.546Z,28.27
2023-05-13T05:43:47.565Z,30.20
2023-05-13T05:44:47.617Z,30.33
2023-05-13T05:45:47.664Z,29.86
2023-05-13T05:46:47.642Z,29.39
2023-05-13T05:47:47.711Z,30.88
2023-05-13T05:48:47.690Z,31.30
2023-05-13T05:49:47.715Z,30.75
2023-05-13T05:50:47.741Z,29.34
2023-05-13T05:51:47.781Z,31.62
2023-05-13T05:52:47.811Z,28.82
2023-05-13T05:53:47.840Z,28.65
2023-05-13T05:54:47.866Z,28.72
2023-05-13T05:55:47.890Z,28.06
2023-05-13T05:56:47.920Z,30.66
2023-05-13T05:57:47.966Z,31.87
2023-05-13T05:58:47.992Z,27.99
2023-05-13T05:59:48.013Z,30.22
2023-05-13T06:00:48.044Z,31.24
2023-05-13T06:01:48.063Z,27.85
2023-05-13T06:02:48.205Z,30.40
2023-05-13T06:03:48.297Z,29.45
2023-05-13T06:04:48.380Z,29.05
2023-05-13T06:05:48.180Z,31.06
2023-05-13T06:06:48.204Z,31.62
2023-05-13T06:07:48.238Z,28.48
2023-05-13T06:08:48.234Z,32.61
2023-05-13T06:09:48.310Z,31.26
2023-05-13T06:10:48.294Z,30.40
2023-05-13T06:11:48.317Z,30.86
2023-05-13T06:12:48.340Z,30.96
2023-05-13T06:13:48.371Z,29.90
2023-05-13T06:14:48.396Z,31.84
2023-05-13T06:15:48.441Z,30.08
2023-05-13T06:16:48.456Z,30.78
2023-05-13T06:17:48.534Z,32.27
2023-05-13T06:18:48.525Z,32.37
2023-05-13T06:19:48.545Z,30.69
2023-05-13T06:20:48.561Z,30.87
2023-05-13T06:21:48.586Z,29.45
2023-05-13T06:22:48.614Z,30.78
2023-05-13T06:23:48.635Z,30.47
2023-05-13T06:24:48.655Z,29.30
2023-05-13T06:25:48.687Z,31.71
2023-05-13T06:26:48.704Z,31.28
2023-05-13T06:27:48.718Z,31.04
2023-05-13T06:28:48.765Z,28.88
2023-05-13T06:29:48.785Z,32.81
2023-05-13T06:30:48.809Z,30.50
2023-05-13T06:31:48.851Z,31.14
2023-05-13T06:33:00.288Z,30.59
2023-05-13T06:33:48.865Z,30.96
2023-05-13T06:34:48.865Z,31.83
2023-05-13T06:35:48.924Z,32.18
2023-05-13T06:36:48.903Z,34.85
2023-05-13T06:37:48.928Z,32.13
2023-05-13T06:38:48.942Z,29.27
2023-05-13T06:39:48.974Z,34.17
2023-05-13T06:40:48.951Z,31.27
2023-05-13T06:41:49.724Z,31.52
2023-05-13T06:42:48.973Z,34.52
2023-05-13T06:43:49.006Z,30.35
2023-05-13T06:44:49.039Z,29.73
2023-05-13T06:45:49.033Z,32.51
2023-05-13T06:46:49.054Z,31.53
2023-05-13T06:47:49.043Z,32.64
2023-05-13T06:48:49.058Z,29.90
2023-05-13T06:49:49.078Z,31.53
2023-05-13T06:50:49.043Z,33.42
2023-05-13T06:51:49.082Z,32.43
2023-05-13T06:52:49.079Z,30.10
2023-05-13T06:53:49.070Z,32.82
2023-05-13T06:54:49.130Z,30.00
2023-05-13T06:55:49.101Z,32.59
2023-05-13T06:56:49.143Z,32.29
2023-05-13T06:57:49.169Z,32.07
2023-05-13T06:58:49.166Z,32.77
2023-05-13T06:59:49.175Z,32.36
2023-05-13T07:00:49.206Z,31.33
2023-05-13T07:01:49.181Z,32.78
2023-05-13T07:02:49.237Z,33.24
2023-05-13T07:03:49.300Z,29.91
2023-05-13T07:04:49.178Z,31.49
2023-05-13T07:05:49.188Z,31.98
2023-05-13T07:06:49.245Z,31.96
2023-05-13T07:07:49.232Z,34.34
2023-05-13T07:08:49.209Z,30.11
2023-05-13T07:09:49.220Z,28.87
2023-05-13T07:10:49.239Z,33.96
2023-05-13T07:11:49.234Z,34.52
2023-05-13T07:12:49.258Z,31.38
2023-05-13T07:13:49.261Z,30.78
2023-05-13T07:14:49.252Z,33.91
2023-05-13T07:15:49.268Z,30.93
2023-05-13T07:16:49.284Z,34.37
2023-05-13T07:17:49.335Z,30.18
2023-05-13T07:18:49.333Z,32.01
2023-05-13T07:19:49.316Z,32.33
2023-05-13T07:20:49.336Z,32.63
2023-05-13T07:21:49.371Z,31.48
2023-05-13T07:22:49.390Z,33.48
2023-05-13T07:23:49.457Z,32.88
2023-05-13T07:24:49.448Z,32.09
2023-05-13T07:25:49.471Z,33.72
2023-05-13T07:26:49.492Z,33.81
2023-05-13T07:27:49.521Z,32.77
2023-05-13T07:28:49.548Z,32.80
2023-05-13T07:29:49.573Z,32.54
2023-05-13T07:30:49.624Z,33.35
2023-05-13T07:31:49.622Z,32.75
2023-05-13T07:32:50.570Z,34.17
2023-05-13T07:33:49.656Z,35.72
2023-05-13T07:34:49.644Z,37.66
2023-05-13T07:35:49.658Z,33.88
2023-05-13T07:36:49.666Z,37.54
2023-05-13T07:37:49.657Z,35.39
2023-05-13T07:38:49.677Z,34.76
2023-05-13T07:39:49.684Z,35.08
2023-05-13T07:40:49.664Z,35.08
2023-05-13T07:41:49.668Z,35.09
2023-05-13T07:42:49.670Z,34.25
2023-05-13T07:43:49.678Z,34.16
2023-05-13T07:44:49.682Z,34.41
2023-05-13T07:45:49.678Z,33.25
2023-05-13T07:46:49.733Z,34.19
2023-05-13T07:47:49.700Z,34.62
2023-05-13T07:48:49.692Z,35.17
2023-05-13T07:49:50.359Z,36.27
2023-05-13T07:50:50.431Z,32.67
2023-05-13T07:51:49.683Z,34.56
2023-05-13T07:52:49.663Z,34.00
2023-05-13T07:53:49.673Z,35.55
2023-05-13T07:54:49.656Z,37.74
2023-05-13T07:55:49.697Z,36.01
2023-05-13T07:56:49.698Z,35.29
2023-05-13T07:57:49.668Z,34.61
2023-05-13T07:58:49.665Z,34.60
2023-05-13T07:59:49.680Z,33.14
2023-05-13T08:00:49.671Z,34.20
2023-05-13T08:01:49.670Z,34.97
2023-05-13T08:02:49.789Z,32.87
2023-05-13T08:03:49.801Z,35.80
2023-05-13T08:04:49.723Z,37.83
2023-05-13T08:05:49.678Z,32.33
2023-05-13T08:06:49.683Z,35.02
2023-05-13T08:07:49.674Z,33.71
2023-05-13T08:08:49.677Z,37.09
2023-05-13T08:09:49.680Z,35.27
2023-05-13T08:10:49.688Z,35.25
2023-05-13T08:11:49.713Z,38.18
2023-05-13T08:12:49.699Z,35.89
2023-05-13T08:13:49.699Z,34.57
2023-05-13T08:14:49.704Z,35.30
2023-05-13T08:15:49.712Z,36.41
2023-05-13T08:16:49.778Z,37.22
2023-05-13T08:17:49.764Z,31.51
2023-05-13T08:18:49.801Z,37.03
2023-05-13T08:19:49.735Z,34.47
2023-05-13T08:20:49.762Z,38.43
2023-05-13T08:21:49.768Z,34.98
2023-05-13T08:22:49.775Z,35.62
2023-05-13T08:23:49.772Z,35.15
2023-05-13T08:24:49.784Z,35.10
2023-05-13T08:25:49.799Z,34.99
2023-05-13T08:26:49.805Z,36.14
2023-05-13T08:27:49.843Z,39.08
2023-05-13T08:28:52.172Z,36.80
2023-05-13T08:29:49.933Z,37.10
2023-05-13T08:30:49.928Z,37.45
2023-05-13T08:31:50.019Z,37.62
2023-05-13T08:32:50.007Z,38.57
2023-05-13T08:33:49.964Z,40.52
2023-05-13T08:34:49.996Z,40.34
2023-05-13T08:35:49.998Z,37.53
2023-05-13T08:36:50.054Z,36.55
2023-05-13T08:37:50.023Z,35.56
2023-05-13T08:38:50.041Z,39.33
2023-05-13T08:39:50.053Z,36.90
2023-05-13T08:40:50.074Z,37.26
2023-05-13T08:41:50.078Z,36.23
2023-05-13T08:42:50.092Z,39.75
2023-05-13T08:43:50.138Z,37.17
2023-05-13T08:44:50.129Z,36.36
2023-05-13T08:45:50.168Z,35.53
2023-05-13T08:46:50.156Z,38.81
2023-05-13T08:47:50.219Z,36.51
2023-05-13T08:48:50.203Z,36.18
2023-05-13T08:49:50.200Z,38.15
2023-05-13T08:50:50.208Z,38.67
2023-05-13T08:51:50.248Z,37.21
2023-05-13T08:52:50.241Z,38.99
2023-05-13T08:53:50.240Z,40.75
2023-05-13T08:54:50.269Z,39.22
2023-05-13T08:55:50.288Z,36.00
2023-05-13T08:56:50.302Z,38.04
2023-05-13T08:57:50.323Z,40.37
2023-05-13T08:58:50.330Z,36.28
2023-05-13T08:59:50.367Z,38.81
2023-05-13T09:00:50.372Z,38.70
2023-05-13T09:01:50.511Z,36.87
2023-05-13T09:02:50.416Z,37.61
2023-05-13T09:03:50.431Z,38.24
2023-05-13T09:04:50.467Z,43.37
2023-05-13T09:05:50.445Z,39.17
2023-05-13T09:06:50.456Z,36.86
2023-05-13T09:07:50.483Z,40.99
2023-05-13T09:08:50.483Z,39.11
2023-05-13T09:09:50.494Z,36.03
2023-05-13T09:10:50.508Z,41.77
2023-05-13T09:11:50.514Z,36.33
2023-05-13T09:12:50.529Z,42.25
2023-05-13T09:13:50.540Z,37.92
2023-05-13T09:14:50.553Z,40.45
2023-05-13T09:15:50.718Z,39.33
2023-05-13T09:16:50.572Z,39.51
2023-05-13T09:17:50.663Z,41.14
2023-05-13T09:18:50.659Z,41.31
2023-05-13T09:19:50.676Z,37.97
2023-05-13T09:20:50.628Z,39.94
2023-05-13T09:21:50.631Z,41.24
2023-05-13T09:22:50.649Z,38.67
2023-05-13T09:23:50.656Z,43.04
2023-05-13T09:24:50.666Z,42.41
2023-05-13T09:25:50.673Z,43.00
2023-05-13T09:26:50.685Z,38.84
2023-05-13T09:27:50.711Z,38.58
2023-05-13T09:28:50.717Z,41.63
2023-05-13T09:29:50.732Z,39.52
2023-05-13T09:30:50.759Z,41.94
2023-05-13T09:31:50.777Z,41.04
2023-05-13T09:32:50.803Z,42.97
2023-05-13T09:33:50.781Z,40.90
2023-05-13T09:34:50.793Z,39.53
2023-05-13T09:35:50.816Z,43.14
2023-05-13T09:36:51.348Z,40.10
2023-05-13T09:37:50.839Z,40.23
2023-05-13T09:38:50.856Z,41.35
2023-05-13T09:39:50.871Z,41.84
2023-05-13T09:40:50.882Z,41.08
2023-05-13T09:41:50.892Z,41.79
2023-05-13T09:42:50.908Z,41.60
2023-05-13T09:43:50.919Z,43.43
2023-05-13T09:44:51.373Z,43.35
2023-05-13T09:45:50.949Z,44.01
2023-05-13T09:46:51.020Z,43.77
2023-05-13T09:47:51.027Z,44.83
2023-05-13T09:48:50.976Z,44.61
2023-05-13T09:49:51.010Z,43.35
2023-05-13T09:50:51.026Z,40.73
2023-05-13T09:51:51.044Z,38.71
2023-05-13T09:52:51.052Z,43.35
2023-05-13T09:53:51.077Z,44.79
2023-05-13T09:54:51.118Z,41.24
2023-05-13T09:55:51.100Z,44.43
2023-05-13T09:56:51.107Z,41.36
2023-05-13T09:57:51.126Z,44.24
2023-05-13T09:58:51.171Z,42.55
2023-05-13T09:59:51.138Z,40.80
2023-05-13T10:00:51.295Z,44.40
2023-05-13T10:01:51.316Z,45.16
2023-05-13T10:02:51.868Z,43.33
2023-05-13T10:03:51.230Z,42.60
2023-05-13T10:04:51.176Z,45.26
2023-05-13T10:05:51.220Z,43.61
2023-05-13T10:06:51.213Z,42.93
2023-05-13T10:07:51.231Z,44.13
2023-05-13T10:08:51.272Z,39.78
2023-05-13T10:09:51.303Z,46.23
2023-05-13T10:10:51.326Z,44.80
2023-05-13T10:11:51.328Z,44.74
2023-05-13T10:12:51.341Z,40.38
2023-05-13T10:13:51.355Z,43.01
2023-05-13T10:14:51.389Z,45.50
2023-05-13T10:15:51.434Z,45.59
2023-05-13T10:16:51.529Z,41.39
2023-05-13T10:17:51.492Z,43.93
2023-05-13T10:18:51.533Z,43.67
2023-05-13T10:19:51.592Z,44.86
2023-05-13T10:20:51.623Z,46.74
2023-05-13T10:21:51.584Z,43.62
2023-05-13T10:22:51.636Z,41.89
2023-05-13T10:23:51.663Z,45.06
2023-05-13T10:24:51.692Z,47.05
2023-05-13T10:25:51.719Z,44.67
2023-05-13T10:26:51.729Z,44.12
2023-05-13T10:27:51.729Z,45.85
2023-05-13T10:28:51.760Z,44.94
2023-05-13T10:29:51.765Z,46.50
2023-05-13T10:30:51.889Z,43.21
2023-05-13T10:31:51.819Z,44.74
2023-05-13T10:32:51.848Z,45.65
2023-05-13T10:33:51.811Z,44.02
2023-05-13T10:34:51.824Z,43.76
2023-05-13T10:35:51.865Z,46.52
2023-05-13T10:36:51.881Z,45.07
2023-05-13T10:37:51.910Z,44.15
2023-05-13T10:38:51.963Z,46.88
2023-05-13T10:39:51.995Z,47.51
2023-05-13T10:40:52.075Z,49.99
2023-05-13T10:41:52.134Z,47.92
2023-05-13T10:42:52.154Z,48.37
2023-05-13T10:43:52.190Z,46.07
2023-05-13T10:44:52.248Z,47.88
2023-05-13T10:45:52.390Z,48.04
2023-05-13T10:46:52.519Z,45.86
2023-05-13T10:47:52.663Z,47.30
2023-05-13T10:48:52.531Z,48.09
2023-05-13T10:49:52.604Z,47.79
2023-05-13T10:50:52.794Z,46.77
2023-05-13T10:51:52.789Z,47.26
2023-05-13T10:52:52.810Z,44.89
2023-05-13T10:53:52.860Z,45.07
2023-05-13T10:54:52.921Z,49.70
2023-05-13T10:55:52.970Z,47.26
2023-05-13T10:56:53.030Z,49.60
2023-05-13T10:57:53.086Z,47.11
2023-05-13T10:58:53.143Z,47.93
2023-05-13T10:59:53.222Z,48.98
2023-05-13T11:00:53.304Z,49.29
2023-05-13T11:01:53.389Z,47.66
2023-05-13T11:02:53.531Z,47.89
2023-05-13T11:03:53.685Z,47.94
2023-05-13T11:04:53.619Z,47.70
2023-05-13T11:05:53.681Z,46.97
2023-05-13T11:06:53.751Z,49.51
2023-05-13T11:07:53.835Z,49.09
2023-05-13T11:08:55.905Z,49.86
2023-05-13T11:09:53.875Z,51.19
2023-05-13T11:10:53.892Z,51.77
2023-05-13T11:11:53.888Z,49.56
2023-05-13T11:12:53.886Z,49.23
2023-05-13T11:13:54.897Z,52.41
2023-05-13T11:14:53.901Z,52.90
2023-05-13T11:15:53.934Z,51.40
2023-05-13T11:16:53.916Z,51.11
2023-05-13T11:17:53.930Z,49.27
2023-05-13T11:18:53.992Z,51.66
2023-05-13T11:19:53.935Z,47.72
2023-05-13T11:20:53.991Z,50.05
2023-05-13T11:21:53.974Z,49.45
2023-05-13T11:22:54.056Z,50.11
2023-05-13T11:23:54.176Z,50.23
2023-05-13T11:24:54.192Z,51.52
2023-05-13T11:25:54.279Z,50.63
2023-05-13T11:26:54.363Z,50.84
2023-05-13T11:27:54.447Z,50.10
2023-05-13T11:28:54.523Z,50.79
2023-05-13T11:29:54.574Z,49.32
2023-05-13T11:30:54.644Z,50.69
2023-05-13T11:31:54.718Z,50.16
2023-05-13T11:32:54.825Z,49.29
2023-05-13T11:33:54.862Z,49.01
2023-05-13T11:34:54.930Z,48.78
2023-05-13T11:35:55.001Z,51.95
2023-05-13T11:36:55.072Z,50.28
2023-05-13T11:37:56.383Z,47.68
2023-05-13T11:38:55.155Z,53.21
2023-05-13T11:39:55.187Z,52.35
2023-05-13T11:40:55.161Z,50.22
2023-05-13T11:41:55.181Z,51.54
2023-05-13T11:42:55.180Z,52.60
2023-05-13T11:43:55.187Z,49.91
2023-05-13T11:44:55.195Z,51.40
2023-05-13T11:45:55.250Z,51.15
2023-05-13T11:46:55.218Z,51.66
2023-05-13T11:47:55.245Z,49.54
2023-05-13T11:48:55.227Z,49.26
2023-05-13T11:49:55.236Z,49.92
2023-05-13T11:50:55.246Z,49.18
2023-05-13T11:51:55.265Z,47.86
2023-05-13T11:52:55.264Z,48.34
2023-05-13T11:53:55.279Z,48.67
2023-05-13T11:54:55.270Z,48.25
2023-05-13T11:55:55.303Z,48.39
2023-05-13T11:56:55.311Z,48.16
2023-05-13T11:57:55.283Z,48.84
2023-05-13T11:58:55.290Z,48.61
2023-05-13T11:59:55.297Z,48.43
2023-05-13T12:00:55.299Z,48.65
2023-05-13T12:01:55.381Z,50.89
2023-05-13T12:02:55.559Z,49.60
2023-05-13T12:03:55.518Z,47.62
2023-05-13T12:04:55.630Z,48.03
2023-05-13T12:05:55.646Z,47.39
2023-05-13T12:06:56.414Z,48.24
2023-05-13T12:07:55.775Z,50.27
2023-05-13T12:08:55.838Z,50.35
2023-05-13T12:09:55.910Z,50.22
2023-05-13T12:10:55.987Z,50.85
2023-05-13T12:11:56.065Z,48.93
2023-05-13T12:12:56.116Z,49.57
2023-05-13T12:13:56.174Z,47.46
2023-05-13T12:14:56.245Z,45.82
2023-05-13T12:15:56.321Z,54.57
2023-05-13T12:16:56.405Z,49.34
2023-05-13T12:17:56.492Z,49.85
2023-05-13T12:18:56.654Z,47.67
2023-05-13T12:19:56.606Z,49.52
2023-05-13T12:20:56.660Z,49.82
2023-05-13T12:21:56.728Z,47.93
2023-05-13T12:22:56.944Z,53.35
2023-05-13T12:23:56.883Z,49.67
2023-05-13T12:24:56.935Z,48.71
2023-05-13T12:25:57.016Z,49.42
2023-05-13T12:26:57.090Z,51.59
2023-05-13T12:27:57.206Z,47.60
2023-05-13T12:28:57.217Z,49.92
2023-05-13T12:29:57.291Z,51.59
2023-05-13T12:30:57.459Z,51.10
2023-05-13T12:31:57.484Z,51.42
2023-05-13T12:32:57.537Z,50.77
2023-05-13T12:33:57.558Z,51.65
2023-05-13T12:34:57.628Z,49.82
2023-05-13T12:35:57.702Z,51.21
2023-05-13T12:36:57.828Z,50.98
2023-05-13T12:37:57.832Z,51.55
2023-05-13T12:39:00.159Z,50.35
2023-05-13T12:39:57.910Z,55.03
2023-05-13T12:40:57.957Z,53.22
2023-05-13T12:41:57.910Z,53.68
2023-05-13T12:42:57.921Z,50.99
2023-05-13T12:43:57.944Z,51.05
2023-05-13T12:44:57.919Z,53.66
2023-05-13T12:45:57.925Z,50.81
2023-05-13T12:46:58.062Z,52.28
2023-05-13T12:47:58.031Z,50.73
2023-05-13T12:48:57.939Z,50.66
2023-05-13T12:49:57.929Z,53.35
2023-05-13T12:50:59.630Z,50.54
2023-05-13T12:51:57.945Z,50.98
2023-05-13T12:52:58.063Z,50.97